Time;durP1;ratioP1;P1;durP2;ratioP2;P2;SDS_P1;SDS_P2;PMS_P1;PMS_P2;Temp;Humidity;BMP_temperature;BMP_pressure;BME280_temperature;BME280_humidity;BME280_pressure;Samples;Min_cycle;Max_cycle;Signal;HPM_P1;HPM_P2
2021/11/08 00:14:30;;;;;;;0.30;0.30;;;6.60;92.80;5.40;101897.00;;;;31290091;28;20041;-68
2021/11/08 00:29:34;;;;;;;0.20;0.20;;;6.60;93.20;5.30;101898.00;;;;31306635;28;20072;-68
2021/11/08 00:44:38;;;;;;;0.30;0.30;;;6.50;93.20;5.30;101901.00;;;;31280151;28;20045;-68
2021/11/08 00:59:42;;;;;;;0.30;0.30;;;6.50;93.50;5.20;101910.00;;;;31310782;28;20048;-68
2021/11/08 01:14:44;;;;;;;0.20;0.20;;;6.50;93.60;5.30;101919.00;;;;31354367;28;20173;-68
2021/11/08 01:29:45;;;;;;;0.20;0.20;;;5.60;94.20;5.20;101911.00;;;;31377237;28;20106;-68
2021/11/08 01:44:55;;;;;;;0.25;0.25;;;6.30;93.50;5.00;101919.00;;;;31374002;28;20052;-68
2021/11/08 02:00:05;;;;;;;0.30;0.30;;;6.20;93.60;4.80;101917.00;;;;31295489;28;20056;-68
2021/11/08 02:15:13;;;;;;;0.32;0.32;;;6.20;94.00;4.70;101938.00;;;;31337378;28;20075;-67
2021/11/08 02:30:26;;;;;;;0.30;0.30;;;5.90;93.90;4.70;101925.00;;;;31350904;28;20519;-68
2021/11/08 02:45:31;;;;;;;0.30;0.30;;;5.90;93.80;4.60;101925.00;;;;31363324;28;20208;-68
2021/11/08 03:00:57;;;;;;;0.30;0.30;;;5.90;93.90;4.40;101948.00;;;;31296540;28;20040;-68
2021/11/08 03:16:13;;;;;;;0.30;0.30;;;5.70;94.00;4.30;101950.00;;;;31368912;28;21067;-68
2021/11/08 03:31:15;;;;;;;0.20;0.20;;;5.60;93.60;4.20;101934.00;;;;31364595;28;20037;-68
2021/11/08 03:46:17;;;;;;;0.38;0.38;;;5.50;93.70;4.10;101943.00;;;;31391980;28;21237;-68
2021/11/08 04:01:20;;;;;;;0.22;0.22;;;5.40;93.60;4.00;101958.00;;;;31386654;28;20055;-68
2021/11/08 04:16:24;;;;;;;0.30;0.30;;;5.30;93.90;3.90;101971.00;;;;31386594;28;20139;-69
2021/11/08 04:31:27;;;;;;;0.30;0.30;;;5.20;94.10;3.90;101985.00;;;;31399884;28;20048;-69
2021/11/08 05:32:33;;;;;;;0.40;0.40;;;5.30;94.40;4.20;102007.00;;;;31386823;28;20055;-68
2021/11/08 05:47:35;;;;;;;0.28;0.28;;;5.50;94.70;4.50;102021.00;;;;31368553;28;20141;-68
2021/11/08 06:49:19;;;;;;;0.25;0.25;;;6.60;95.30;5.00;102049.00;;;;31247794;28;20602;-68
2021/11/08 07:04:11;;;;;;;0.20;0.20;;;6.10;95.70;5.10;102070.00;;;;31254033;28;20056;-68
2021/11/08 07:19:15;;;;;;;0.20;0.20;;;6.40;95.20;5.30;102073.00;;;;31278787;28;20527;-68
2021/11/08 07:34:17;;;;;;;0.20;0.20;;;6.50;95.10;5.50;102085.00;;;;31292238;28;21328;-68
2021/11/08 07:49:18;;;;;;;0.30;0.30;;;6.80;95.20;5.80;102116.00;;;;31275125;28;20109;-68
2021/11/08 08:05:15;;;;;;;0.30;0.30;;;7.10;95.90;6.10;102128.00;;;;31258140;28;20048;-68
2021/11/08 08:20:21;;;;;;;0.30;0.30;;;7.20;95.20;6.40;102137.00;;;;31254974;28;20060;-68
2021/11/08 08:35:28;;;;;;;0.28;0.28;;;7.60;95.40;6.80;102170.00;;;;31278721;28;20092;-67
2021/11/08 08:50:29;;;;;;;0.65;0.43;;;6.40;95.00;7.00;102183.00;;;;31259252;28;20085;-68
2021/11/08 09:05:31;;;;;;;0.20;0.20;;;7.90;95.40;7.40;102190.00;;;;31267901;28;20048;-67
2021/11/08 09:20:35;;;;;;;0.20;0.20;;;9.50;95.70;7.80;102200.00;;;;31261462;28;20049;-68
2021/11/08 09:35:38;;;;;;;0.20;0.20;;;8.80;94.60;8.00;102190.00;;;;31257341;28;20049;-68
2021/11/08 09:50:43;;;;;;;0.20;0.20;;;9.00;94.00;8.20;102218.00;;;;31221152;28;20146;-68
2021/11/08 10:05:49;;;;;;;0.10;0.10;;;9.40;93.80;8.50;102206.00;;;;31114259;28;20068;-69
2021/11/08 10:21:04;;;;;;;0.28;0.28;;;9.60;93.50;8.70;102216.00;;;;31127255;28;20049;-68
2021/11/08 10:36:20;;;;;;;0.20;0.20;;;9.90;93.10;9.10;102227.00;;;;31122989;28;20046;-68
2021/11/08 10:51:27;;;;;;;0.20;0.20;;;10.20;92.40;9.30;102216.00;;;;31182148;28;20428;-68
2021/11/08 11:06:45;;;;;;;0.20;0.20;;;10.40;92.40;9.70;102192.00;;;;31363429;28;20040;-68
2021/11/08 11:22:06;;;;;;;0.20;0.20;;;10.80;91.90;10.10;102189.00;;;;31337388;28;20134;-68
2021/11/08 11:37:29;;;;;;;0.20;0.20;;;11.20;91.20;10.40;102212.00;;;;31377570;28;20063;-69
2021/11/08 11:52:31;;;;;;;0.20;0.20;;;9.10;92.10;10.60;102211.00;;;;31339213;28;20049;-69
2021/11/08 12:07:35;;;;;;;0.20;0.20;;;11.70;90.30;10.90;102211.00;;;;31249005;28;20044;-68
2021/11/08 12:22:40;;;;;;;0.10;0.10;;;11.70;90.20;11.20;102209.00;;;;31241793;28;20042;-68
2021/11/08 12:37:42;;;;;;;;;;;12.20;89.20;11.30;102204.00;;;;31278917;28;20425;-69
2021/11/08 12:52:44;;;;;;;0.17;0.17;;;12.20;86.70;11.50;102193.00;;;;31298257;28;19978;-69
2021/11/08 13:07:53;;;;;;;0.73;0.73;;;12.50;86.30;11.60;102182.00;;;;31378391;28;20137;-69
2021/11/08 13:23:09;;;;;;;0.10;0.10;;;12.50;84.80;11.70;102189.00;;;;31382353;28;20042;-69
2021/11/08 13:38:22;;;;;;;0.10;0.10;;;12.60;85.40;11.70;102194.00;;;;31387588;28;20040;-69
2021/11/08 13:53:36;;;;;;;0.20;0.20;;;12.60;84.60;11.70;102187.00;;;;31283027;28;20102;-69
2021/11/08 14:08:49;;;;;;;0.20;0.20;;;12.60;84.20;11.60;102200.00;;;;31142542;28;20069;-68
2021/11/08 14:24:17;;;;;;;0.15;0.15;;;12.70;85.70;11.50;102205.00;;;;31129605;28;20136;-68
2021/11/08 14:39:23;;;;;;;0.10;0.10;;;12.40;83.50;11.50;102205.00;;;;31111744;28;20033;-69
2021/11/08 14:54:28;;;;;;;0.50;0.50;;;11.70;84.30;11.40;102212.00;;;;31237074;28;20037;-69
2021/11/08 15:09:51;;;;;;;0.10;0.10;;;12.30;84.10;11.20;102227.00;;;;31276944;28;20728;-70
2021/11/08 15:24:54;;;;;;;0.10;0.10;;;12.70;85.30;11.10;102231.00;;;;31214007;28;20041;-69
2021/11/08 15:39:58;;;;;;;0.10;0.10;;;12.00;85.00;11.00;102240.00;;;;31309933;28;20044;-69
2021/11/08 15:55:02;;;;;;;;;;;11.90;84.70;10.80;102257.00;;;;31267655;28;20041;-69
2021/11/08 16:10:05;;;;;;;0.10;0.10;;;11.70;85.50;10.70;102281.00;;;;31266996;28;20007;-69
2021/11/08 16:25:07;;;;;;;0.20;0.20;;;11.50;88.90;10.50;102291.00;;;;31333803;28;20283;-69
2021/11/08 16:40:12;;;;;;;0.10;0.10;;;11.40;88.70;10.40;102305.00;;;;31293805;28;20041;-70
2021/11/08 16:55:14;;;;;;;0.10;0.10;;;11.20;89.70;10.10;102307.00;;;;31269189;28;20059;-70
2021/11/08 17:10:32;;;;;;;0.20;0.20;;;11.20;90.40;10.10;102296.00;;;;31268006;28;20049;-70
2021/11/08 17:25:36;;;;;;;0.17;0.17;;;11.10;90.20;10.00;102310.00;;;;31249881;28;20056;-70
2021/11/08 17:40:39;;;;;;;0.20;0.20;;;11.00;90.40;9.90;102327.00;;;;31301880;28;20067;-70
2021/11/08 17:55:41;;;;;;;0.10;0.10;;;10.90;90.40;9.80;102352.00;;;;31261255;28;20056;-70
2021/11/08 18:10:46;;;;;;;0.10;0.10;;;10.90;90.60;9.80;102364.00;;;;31374623;28;20566;-70
2021/11/08 18:40:51;;;;;;;0.20;0.20;;;10.70;90.50;9.70;102389.00;;;;31311226;28;20049;-69
2021/11/08 18:55:52;;;;;;;0.10;0.10;;;10.70;90.50;9.60;102399.00;;;;31234247;28;20056;-70
2021/11/08 19:10:53;;;;;;;0.20;0.20;;;10.60;90.80;9.50;102397.00;;;;31235235;28;20057;-70
2021/11/08 19:25:54;;;;;;;0.20;0.20;;;10.60;90.90;9.50;102394.00;;;;31354526;28;20118;-70
2021/11/08 19:40:56;;;;;;;0.20;0.20;;;10.60;90.50;9.50;102388.00;;;;31357880;28;20384;-70
2021/11/08 19:56:06;;;;;;;0.20;0.20;;;10.60;90.60;9.40;102388.00;;;;31362980;28;21004;-69
2021/11/08 20:11:08;;;;;;;1.75;1.65;;;10.40;90.20;9.30;102410.00;;;;31363606;28;20061;-70
2021/11/08 20:26:10;;;;;;;0.20;0.20;;;10.20;90.10;9.10;102410.00;;;;31305924;28;21134;-70
2021/11/08 20:41:23;;;;;;;0.20;0.20;;;9.90;90.10;8.60;102399.00;;;;31366066;28;20053;-70
2021/11/08 21:26:54;;;;;;;0.20;0.20;;;8.70;90.70;7.40;102433.00;;;;31330598;28;20131;-70
2021/11/08 21:41:55;;;;;;;0.20;0.20;;;8.50;90.80;7.10;102450.00;;;;31335645;28;20040;-70
2021/11/08 21:56:56;;;;;;;2.15;2.08;;;8.10;91.50;6.70;102455.00;;;;31327328;28;20047;-69
2021/11/08 22:11:57;;;;;;;0.30;0.30;;;8.00;91.50;6.50;102458.00;;;;31288775;28;20044;-69
2021/11/08 22:26:59;;;;;;;0.20;0.20;;;7.70;91.30;6.30;102449.00;;;;31278721;28;20056;-70
2021/11/08 22:42:00;;;;;;;0.20;0.20;;;6.90;93.00;6.10;102455.00;;;;31290192;28;20408;-69
2021/11/08 22:57:05;;;;;;;0.20;0.20;;;8.20;92.10;6.00;102439.00;;;;31251976;28;20049;-70
2021/11/08 23:12:11;;;;;;;0.30;0.30;;;7.30;92.10;5.80;102442.00;;;;31244703;28;20041;-70
2021/11/08 23:27:19;;;;;;;0.30;0.30;;;7.00;91.70;5.70;102445.00;;;;31247924;28;20641;-70
2021/11/08 23:42:22;;;;;;;0.20;0.20;;;6.90;91.90;5.60;102441.00;;;;31243643;28;20543;-70
2021/11/08 23:57:25;;;;;;;0.20;0.20;;;6.80;92.20;5.50;102447.00;;;;31251867;28;20810;-69
